createdAt,value
2022-08-25T00:02:03.025Z,21.62
2022-08-25T00:05:05.802Z,21.57
2022-08-25T00:08:08.889Z,21.59
2022-08-25T00:11:14.920Z,21.63
2022-08-25T00:14:26.683Z,21.62
2022-08-25T00:17:28.950Z,21.57
2022-08-25T00:20:31.798Z,21.57
2022-08-25T00:23:34.083Z,21.56
2022-08-25T00:26:40.431Z,21.55
2022-08-25T00:29:42.635Z,21.57
2022-08-25T00:32:55.486Z,21.64
2022-08-25T00:36:00.338Z,21.64
2022-08-25T00:39:02.498Z,21.63
2022-08-25T00:42:05.611Z,21.65
2022-08-25T00:45:13.771Z,21.65
2022-08-25T00:48:16.014Z,21.65
2022-08-25T00:51:26.002Z,21.58
2022-08-25T00:54:32.815Z,21.64
2022-08-25T00:57:43.823Z,21.66
2022-08-25T01:00:49.673Z,21.63
2022-08-25T01:03:52.046Z,21.66
2022-08-25T01:06:55.477Z,21.65
2022-08-25T01:09:57.557Z,21.63
2022-08-25T01:13:18.238Z,21.63
2022-08-25T01:16:20.645Z,21.67
2022-08-25T01:19:22.941Z,21.68
2022-08-25T01:22:26.767Z,21.72
2022-08-25T01:25:47.393Z,21.70
2022-08-25T01:29:09.142Z,21.75
2022-08-25T01:32:14.203Z,21.80
2022-08-25T01:35:16.579Z,21.80
2022-08-25T01:38:20.943Z,21.80
2022-08-25T01:41:46.308Z,21.81
2022-08-25T01:44:49.104Z,21.85
2022-08-25T01:47:51.087Z,21.80
2022-08-25T01:50:53.396Z,21.80
2022-08-25T01:53:55.504Z,21.73
2022-08-25T01:56:58.825Z,21.65
2022-08-25T02:00:01.843Z,21.67
2022-08-25T02:03:18.723Z,21.76
2022-08-25T02:06:32.056Z,21.76
2022-08-25T02:09:36.629Z,21.73
2022-08-25T02:12:39.018Z,21.74
2022-08-25T02:15:44.436Z,21.75
2022-08-25T02:18:47.580Z,21.73
2022-08-25T02:21:50.428Z,21.78
2022-08-25T02:24:55.984Z,21.77
2022-08-25T02:27:58.559Z,21.73
2022-08-25T02:31:01.723Z,21.70
2022-08-25T02:34:04.278Z,21.73
2022-08-25T02:37:06.231Z,21.73
2022-08-25T02:40:09.093Z,21.68
2022-08-25T02:43:11.214Z,21.61
2022-08-25T02:46:13.539Z,21.64
2022-08-25T02:49:15.661Z,21.67
2022-08-25T02:52:18.616Z,21.74
2022-08-25T02:55:20.800Z,21.71
2022-08-25T02:58:23.788Z,21.71
2022-08-25T03:01:28.733Z,21.70
2022-08-25T03:04:32.027Z,21.78
2022-08-25T03:07:35.443Z,21.74
2022-08-25T03:10:38.999Z,21.79
2022-08-25T03:13:41.155Z,21.78
2022-08-25T03:16:46.231Z,21.73
2022-08-25T03:19:48.700Z,21.79
2022-08-25T03:22:50.910Z,21.73
2022-08-25T03:26:15.201Z,21.75
2022-08-25T03:29:18.180Z,21.70
2022-08-25T03:32:20.511Z,21.72
2022-08-25T03:35:23.267Z,21.69
2022-08-25T03:38:26.227Z,21.70
2022-08-25T03:41:32.492Z,21.73
2022-08-25T03:44:34.704Z,21.73
2022-08-25T03:47:37.315Z,21.73
2022-08-25T03:50:50.476Z,21.76
2022-08-25T03:53:54.449Z,21.73
2022-08-25T03:56:56.642Z,21.72
2022-08-25T03:59:58.962Z,21.73
2022-08-25T04:03:01.298Z,21.69
2022-08-25T04:06:05.463Z,21.69
2022-08-25T04:09:08.149Z,21.75
2022-08-25T04:12:10.349Z,21.78
2022-08-25T04:15:12.335Z,21.80
2022-08-25T04:18:15.217Z,21.83
2022-08-25T04:21:18.295Z,21.84
2022-08-25T04:24:21.885Z,21.77
2022-08-25T04:27:23.926Z,21.80
2022-08-25T04:30:26.242Z,21.81
2022-08-25T04:33:28.281Z,21.81
2022-08-25T04:36:30.980Z,21.90
2022-08-25T04:39:33.123Z,21.94
2022-08-25T04:42:35.400Z,21.97
2022-08-25T04:45:39.747Z,21.97
2022-08-25T04:48:42.667Z,22.00
2022-08-25T04:51:44.947Z,21.98
2022-08-25T04:54:47.536Z,21.95
2022-08-25T04:57:49.898Z,21.98
2022-08-25T05:00:52.450Z,22.02
2022-08-25T05:03:59.472Z,22.04
2022-08-25T05:07:02.248Z,22.07
2022-08-25T05:10:04.580Z,22.15
2022-08-25T05:13:06.818Z,22.23
2022-08-25T05:16:09.893Z,22.16
2022-08-25T05:19:13.984Z,22.23
2022-08-25T05:22:16.021Z,22.30
2022-08-25T05:25:18.750Z,22.31
2022-08-25T05:28:21.192Z,22.36
2022-08-25T05:31:24.875Z,22.40
2022-08-25T05:34:27.097Z,22.44
2022-08-25T05:37:29.378Z,22.52
2022-08-25T05:40:31.932Z,22.55
2022-08-25T05:43:34.956Z,22.55
2022-08-25T05:46:37.022Z,22.61
2022-08-25T05:49:39.272Z,22.70
2022-08-25T05:52:41.418Z,22.90
2022-08-25T05:55:47.337Z,23.09
2022-08-25T05:58:50.294Z,23.22
2022-08-25T06:02:10.902Z,23.35
2022-08-25T06:05:17.495Z,23.40
2022-08-25T06:08:19.921Z,23.54
2022-08-25T06:11:21.985Z,23.49
2022-08-25T06:14:24.585Z,23.61
2022-08-25T06:17:26.723Z,23.78
2022-08-25T06:20:30.700Z,24.08
2022-08-25T06:23:34.182Z,24.54
2022-08-25T06:26:37.470Z,24.82
2022-08-25T06:29:39.514Z,24.94
2022-08-25T06:32:45.083Z,24.98
2022-08-25T06:35:47.103Z,25.10
2022-08-25T06:38:49.449Z,25.22
2022-08-25T06:41:55.334Z,25.45
2022-08-25T06:45:01.422Z,25.50
2022-08-25T06:48:03.624Z,25.53
2022-08-25T06:51:14.086Z,25.60
2022-08-25T06:54:16.530Z,25.82
2022-08-25T06:57:19.180Z,26.03
2022-08-25T07:00:21.536Z,25.84
2022-08-25T07:06:33.021Z,25.83
2022-08-25T07:09:39.025Z,25.93
2022-08-25T07:12:41.582Z,25.99
2022-08-25T07:15:44.428Z,26.08
2022-08-25T07:18:48.153Z,26.08
2022-08-25T07:21:53.263Z,26.08
2022-08-25T07:24:55.316Z,26.17
2022-08-25T07:27:59.048Z,26.29
2022-08-25T07:31:01.743Z,26.47
2022-08-25T07:34:22.702Z,26.69
2022-08-25T07:37:48.014Z,26.80
2022-08-25T07:40:54.633Z,26.91
2022-08-25T07:43:59.139Z,27.00
2022-08-25T07:47:01.550Z,27.14
2022-08-25T07:50:05.792Z,27.19
2022-08-25T07:53:09.511Z,27.30
2022-08-25T07:56:15.113Z,27.39
2022-08-25T07:59:18.813Z,27.51
2022-08-25T08:02:21.010Z,27.75
2022-08-25T08:05:27.713Z,27.92
2022-08-25T08:08:29.800Z,28.02
2022-08-25T08:11:37.295Z,28.42
2022-08-25T08:14:44.869Z,28.48
2022-08-25T08:17:48.207Z,28.73
2022-08-25T08:20:50.326Z,29.01
2022-08-25T08:23:58.731Z,29.23
2022-08-25T08:27:02.906Z,29.35
2022-08-25T08:30:06.645Z,29.07
2022-08-25T08:33:11.393Z,28.98
2022-08-25T08:36:14.795Z,29.55
2022-08-25T08:39:17.735Z,30.14
2022-08-25T08:42:47.217Z,30.64
2022-08-25T08:45:53.108Z,31.17
2022-08-25T08:49:01.713Z,31.47
2022-08-25T08:52:04.763Z,31.93
2022-08-25T08:55:13.185Z,32.19
2022-08-25T08:58:26.198Z,32.49
2022-08-25T09:01:35.892Z,32.29
2022-08-25T09:04:48.624Z,32.50
2022-08-25T09:08:00.264Z,32.52
2022-08-25T09:11:21.328Z,32.93
2022-08-25T09:15:12.261Z,32.83
2022-08-25T09:18:27.303Z,33.13
2022-08-25T09:21:45.544Z,33.04
2022-08-25T09:25:08.763Z,33.26
2022-08-25T09:28:52.359Z,33.13
2022-08-25T09:32:07.913Z,33.51
2022-08-25T09:35:26.355Z,33.56
2022-08-25T09:38:31.030Z,33.76
2022-08-25T09:41:52.787Z,33.67
2022-08-25T09:44:55.031Z,33.66
2022-08-25T09:47:57.520Z,33.69
2022-08-25T09:51:02.839Z,33.84
2022-08-25T09:54:18.870Z,34.05
2022-08-25T09:57:37.369Z,34.48
2022-08-25T10:00:39.774Z,34.59
2022-08-25T10:03:57.004Z,34.63
2022-08-25T10:07:00.999Z,34.64
2022-08-25T10:10:08.462Z,34.58
2022-08-25T10:13:14.988Z,34.71
2022-08-25T10:16:36.110Z,34.97
2022-08-25T10:19:39.030Z,35.31
2022-08-25T10:22:43.339Z,34.97
2022-08-25T10:26:00.429Z,34.65
2022-08-25T10:29:12.112Z,35.20
2022-08-25T10:32:46.223Z,35.61
2022-08-25T10:36:14.852Z,35.76
2022-08-25T10:39:40.739Z,35.92
2022-08-25T10:43:08.546Z,36.05
2022-08-25T10:46:37.195Z,36.09
2022-08-25T10:49:47.337Z,36.15
2022-08-25T10:53:11.044Z,36.47
2022-08-25T10:56:43.695Z,36.78
2022-08-25T11:00:02.531Z,36.53
2022-08-25T11:03:29.962Z,36.72
2022-08-25T11:07:00.837Z,36.76
2022-08-25T11:10:16.352Z,36.98
2022-08-25T11:13:43.891Z,36.60
2022-08-25T11:17:12.629Z,36.66
2022-08-25T11:20:27.039Z,36.92
2022-08-25T11:23:40.051Z,37.02
2022-08-25T11:26:47.396Z,37.10
2022-08-25T11:30:02.070Z,37.44
2022-08-25T11:33:13.079Z,37.77
2022-08-25T11:36:21.068Z,37.77
2022-08-25T11:40:00.722Z,37.51
2022-08-25T11:43:24.691Z,37.27
2022-08-25T11:46:46.660Z,36.93
2022-08-25T11:50:00.478Z,37.08
2022-08-25T11:53:42.427Z,36.72
2022-08-25T11:56:56.592Z,37.04
2022-08-25T12:00:10.252Z,36.99
2022-08-25T12:03:36.907Z,37.03
2022-08-25T12:07:11.261Z,37.39
2022-08-25T12:10:25.289Z,37.51
2022-08-25T12:13:47.593Z,37.81
2022-08-25T12:16:55.496Z,37.40
2022-08-25T12:19:59.624Z,37.16
2022-08-25T12:23:02.572Z,37.22
2022-08-25T12:26:19.735Z,37.05
2022-08-25T12:29:42.142Z,36.72
2022-08-25T12:33:15.796Z,36.61
2022-08-25T12:36:33.293Z,36.45
2022-08-25T12:39:37.582Z,36.23
2022-08-25T12:42:43.895Z,36.34
2022-08-25T12:45:47.709Z,36.66
2022-08-25T12:49:05.738Z,36.42
2022-08-25T12:52:13.344Z,36.45
2022-08-25T12:55:16.015Z,36.36
2022-08-25T12:58:18.730Z,36.38
2022-08-25T13:01:48.516Z,36.52
2022-08-25T13:05:22.377Z,36.47
2022-08-25T13:09:01.962Z,36.64
2022-08-25T13:12:22.306Z,36.41
2022-08-25T13:15:47.329Z,36.24
2022-08-25T13:18:51.832Z,36.23
2022-08-25T13:21:56.137Z,36.31
2022-08-25T13:28:05.073Z,36.36
2022-08-25T13:31:22.144Z,36.26
2022-08-25T13:34:34.699Z,36.03
2022-08-25T13:37:37.520Z,35.95
2022-08-25T13:40:39.837Z,36.02
2022-08-25T13:43:45.874Z,35.92
2022-08-25T13:46:48.606Z,35.68
2022-08-25T13:49:53.427Z,35.41
2022-08-25T13:53:22.976Z,35.36
2022-08-25T13:56:40.046Z,35.37
2022-08-25T13:59:46.505Z,35.42
2022-08-25T14:02:53.220Z,35.46
2022-08-25T14:06:19.404Z,35.55
2022-08-25T14:09:28.178Z,35.69
2022-08-25T14:12:35.551Z,35.53
2022-08-25T14:15:38.879Z,35.45
2022-08-25T14:18:48.695Z,35.40
2022-08-25T14:21:56.757Z,35.35
2022-08-25T14:24:58.976Z,35.54
2022-08-25T14:28:25.511Z,35.12
2022-08-25T14:31:34.259Z,35.22
2022-08-25T14:34:37.986Z,34.96
2022-08-25T14:37:41.703Z,34.83
2022-08-25T14:40:44.639Z,34.84
2022-08-25T14:43:47.678Z,34.83
2022-08-25T14:46:54.919Z,34.95
2022-08-25T14:49:57.037Z,35.06
2022-08-25T14:53:00.604Z,34.84
2022-08-25T14:56:09.320Z,34.87
2022-08-25T14:59:15.442Z,34.78
2022-08-25T15:02:20.209Z,34.70
2022-08-25T15:05:28.404Z,34.59
2022-08-25T15:08:49.412Z,34.77
2022-08-25T15:11:54.740Z,34.61
2022-08-25T15:14:58.370Z,34.68
2022-08-25T15:18:01.420Z,34.62
2022-08-25T15:21:03.732Z,34.46
2022-08-25T15:24:08.858Z,34.40
2022-08-25T15:27:13.515Z,34.31
2022-08-25T15:30:16.005Z,34.23
2022-08-25T15:33:18.139Z,34.02
2022-08-25T15:36:24.663Z,34.05
2022-08-25T15:39:28.048Z,33.93
2022-08-25T15:42:30.412Z,33.74
2022-08-25T15:45:32.840Z,33.70
2022-08-25T15:48:35.958Z,33.76
2022-08-25T15:51:38.253Z,33.82
2022-08-25T15:54:41.064Z,33.61
2022-08-25T15:57:45.043Z,33.49
2022-08-25T16:00:56.172Z,33.54
2022-08-25T16:03:59.567Z,33.36
2022-08-25T16:07:02.180Z,33.26
2022-08-25T16:10:06.728Z,33.21
2022-08-25T16:13:10.584Z,33.04
2022-08-25T16:16:13.990Z,33.03
2022-08-25T16:19:16.575Z,32.90
2022-08-25T16:22:18.836Z,32.88
2022-08-25T16:25:21.906Z,32.93
2022-08-25T16:28:24.539Z,32.62
2022-08-25T16:31:27.401Z,32.17
2022-08-25T16:34:30.899Z,32.05
2022-08-25T16:37:35.986Z,32.04
2022-08-25T16:40:42.427Z,32.09
2022-08-25T16:43:45.802Z,32.00
2022-08-25T16:46:48.321Z,31.86
2022-08-25T16:49:50.591Z,31.56
2022-08-25T16:53:12.404Z,31.52
2022-08-25T16:56:15.033Z,31.40
2022-08-25T16:59:17.283Z,31.19
2022-08-25T17:02:19.624Z,31.06
2022-08-25T17:05:23.817Z,30.84
2022-08-25T17:08:30.600Z,30.70
2022-08-25T17:11:35.861Z,30.61
2022-08-25T17:14:38.226Z,30.30
2022-08-25T17:17:40.247Z,30.07
2022-08-25T17:20:45.236Z,29.86
2022-08-25T17:23:48.271Z,29.73
2022-08-25T17:26:53.756Z,29.63
2022-08-25T17:29:56.261Z,29.40
2022-08-25T17:33:00.087Z,29.30
2022-08-25T17:36:02.378Z,29.11
2022-08-25T17:39:05.028Z,28.92
2022-08-25T17:42:07.622Z,28.83
2022-08-25T17:45:10.997Z,28.74
2022-08-25T17:48:13.967Z,28.61
2022-08-25T17:51:16.514Z,28.47
2022-08-25T17:54:18.759Z,28.30
2022-08-25T17:57:21.201Z,28.15
2022-08-25T18:00:23.780Z,27.97
2022-08-25T18:03:27.478Z,27.79
2022-08-25T18:06:31.075Z,27.64
2022-08-25T18:09:33.394Z,27.53
2022-08-25T18:12:36.776Z,27.48
2022-08-25T18:15:42.502Z,27.34
2022-08-25T18:18:44.774Z,27.11
2022-08-25T18:21:47.084Z,26.99
2022-08-25T18:24:49.460Z,26.84
2022-08-25T18:27:57.524Z,26.70
2022-08-25T18:31:00.691Z,26.48
2022-08-25T18:34:09.798Z,26.34
2022-08-25T18:37:31.461Z,26.18
2022-08-25T18:40:36.007Z,26.04
2022-08-25T18:43:38.703Z,25.96
2022-08-25T18:46:42.265Z,25.92
2022-08-25T18:49:47.080Z,25.81
2022-08-25T18:52:55.176Z,25.71
2022-08-25T18:55:58.200Z,25.69
2022-08-25T18:59:00.851Z,25.61
2022-08-25T19:02:03.034Z,25.60
2022-08-25T19:05:07.679Z,25.52
2022-08-25T19:08:15.021Z,25.50
2022-08-25T19:11:22.289Z,25.42
2022-08-25T19:14:26.470Z,25.39
2022-08-25T19:17:28.804Z,25.28
2022-08-25T19:20:40.568Z,25.22
2022-08-25T19:23:42.928Z,25.20
2022-08-25T19:26:45.703Z,25.13
2022-08-25T19:29:47.994Z,25.07
2022-08-25T19:32:51.929Z,24.96
2022-08-25T19:35:54.859Z,24.93
2022-08-25T19:39:01.252Z,24.90
2022-08-25T19:42:04.143Z,24.80
2022-08-25T19:45:09.811Z,24.69
2022-08-25T19:48:13.823Z,24.58
2022-08-25T19:51:16.440Z,24.50
2022-08-25T19:54:51.346Z,24.41
2022-08-25T19:57:54.764Z,24.32
2022-08-25T20:00:57.139Z,24.28
2022-08-25T20:03:59.210Z,24.20
2022-08-25T20:07:02.556Z,24.17
2022-08-25T20:10:08.588Z,24.08
2022-08-25T20:13:16.764Z,24.03
2022-08-25T20:16:19.373Z,23.96
2022-08-25T20:19:23.100Z,23.89
2022-08-25T20:22:27.724Z,23.81
2022-08-25T20:25:36.828Z,23.61
2022-08-25T20:28:42.065Z,23.54
2022-08-25T20:31:46.832Z,23.37
2022-08-25T20:34:55.711Z,23.25
2022-08-25T20:37:59.288Z,23.12
2022-08-25T20:41:01.846Z,23.06
2022-08-25T20:44:05.729Z,22.98
2022-08-25T20:47:10.327Z,22.87
2022-08-25T20:50:12.788Z,22.73
2022-08-25T20:53:17.698Z,22.65
2022-08-25T20:56:20.809Z,22.55
2022-08-25T20:59:24.175Z,22.44
2022-08-25T21:02:27.899Z,22.35
2022-08-25T21:05:30.313Z,22.28
2022-08-25T21:08:34.142Z,22.20
2022-08-25T21:11:37.891Z,22.13
2022-08-25T21:14:43.919Z,22.05
2022-08-25T21:17:54.497Z,21.99
2022-08-25T21:20:56.942Z,21.93
2022-08-25T21:24:00.629Z,21.86
2022-08-25T21:27:03.996Z,21.78
2022-08-25T21:30:07.608Z,21.71
2022-08-25T21:33:09.931Z,21.64
2022-08-25T21:36:14.496Z,21.58
2022-08-25T21:39:17.552Z,21.53
2022-08-25T21:42:20.893Z,21.49
2022-08-25T21:45:24.346Z,21.39
2022-08-25T21:48:26.346Z,21.30
2022-08-25T21:51:34.983Z,21.26
2022-08-25T21:54:42.562Z,21.21
2022-08-25T21:57:44.840Z,21.15
2022-08-25T22:00:46.871Z,21.10
2022-08-25T22:03:49.875Z,21.05
2022-08-25T22:06:52.400Z,20.99
2022-08-25T22:09:54.997Z,20.90
2022-08-25T22:12:57.336Z,20.79
2022-08-25T22:15:59.596Z,20.69
2022-08-25T22:19:03.450Z,20.60
2022-08-25T22:22:06.878Z,20.52
2022-08-25T22:25:09.104Z,20.47
2022-08-25T22:28:14.416Z,20.47
2022-08-25T22:31:20.739Z,20.40
2022-08-25T22:34:30.235Z,20.35
2022-08-25T22:37:32.576Z,20.32
2022-08-25T22:40:38.708Z,20.21
2022-08-25T22:43:41.957Z,20.15
2022-08-25T22:46:44.634Z,20.11
2022-08-25T22:49:47.596Z,20.06
2022-08-25T22:52:50.129Z,19.99
2022-08-25T22:55:53.082Z,19.91
2022-08-25T22:59:04.474Z,19.84
2022-08-25T23:02:07.033Z,19.72
2022-08-25T23:05:12.403Z,19.62
2022-08-25T23:08:14.695Z,19.50
2022-08-25T23:11:18.252Z,19.48
2022-08-25T23:14:20.829Z,19.42
2022-08-25T23:17:24.666Z,19.36
2022-08-25T23:20:49.823Z,19.29
2022-08-25T23:23:53.578Z,19.25
2022-08-25T23:26:55.972Z,19.13
2022-08-25T23:29:58.293Z,19.11
2022-08-25T23:33:01.397Z,19.04
2022-08-25T23:36:07.233Z,18.95
2022-08-25T23:39:09.451Z,18.87
2022-08-25T23:42:11.711Z,18.82
2022-08-25T23:45:15.793Z,18.83
2022-08-25T23:48:18.812Z,18.81
2022-08-25T23:51:23.947Z,18.72
2022-08-25T23:54:30.869Z,18.61
2022-08-25T23:57:33.763Z,18.56
